Time;durP1;ratioP1;P1;durP2;ratioP2;P2;SDS_P1;SDS_P2;PMS_P1;PMS_P2;Temp;Humidity;BMP_temperature;BMP_pressure;BME280_temperature;BME280_humidity;BME280_pressure;Samples;Min_cycle;Max_cycle;Signal;HPM_P1;HPM_P2
2020/12/17 00:01:11;;;;;;;15.48;8.85;;;;;;;1.22;66.13;99916.09;5037173;28;20058;-54
2020/12/17 00:03:37;;;;;;;18.42;8.95;;;;;;;1.61;66.50;99974.34;5029044;28;20044;-57
2020/12/17 00:06:02;;;;;;;15.60;8.82;;;;;;;1.63;66.16;99960.16;5028387;28;20132;-56
2020/12/17 00:08:28;;;;;;;14.93;9.30;;;;;;;1.57;66.37;99937.50;5027977;28;20033;-56
2020/12/17 00:10:54;;;;;;;15.27;8.45;;;;;;;1.65;65.83;99958.31;5015678;28;20493;-57
2020/12/17 00:13:21;;;;;;;17.42;9.15;;;;;;;1.66;66.45;99956.53;5029421;28;20485;-58
2020/12/17 00:15:47;;;;;;;16.10;9.25;;;;;;;1.66;66.69;99959.16;5028358;28;20040;-54
2020/12/17 00:18:13;;;;;;;14.00;8.52;;;;;;;1.67;66.09;99948.56;5028092;28;20041;-53
2020/12/17 00:20:38;;;;;;;15.57;8.77;;;;;;;1.67;66.10;99942.41;5028970;28;20086;-57
2020/12/17 00:23:03;;;;;;;15.90;9.27;;;;;;;1.68;66.11;99942.34;5028933;28;20045;-53
2020/12/17 00:25:29;;;;;;;16.70;8.88;;;;;;;1.67;65.99;99940.63;5028184;28;20095;-57
2020/12/17 00:27:55;;;;;;;15.10;8.18;;;;;;;1.77;66.46;99953.44;5028066;28;20026;-58
2020/12/17 00:30:20;;;;;;;17.13;8.82;;;;;;;1.77;65.72;99967.50;5028989;28;20511;-57
2020/12/17 00:32:47;;;;;;;16.33;7.85;;;;;;;1.71;66.34;99950.13;5028670;28;20038;-58
2020/12/17 00:35:13;;;;;;;15.20;8.27;;;;;;;1.71;66.57;99959.84;5028252;28;20489;-56
2020/12/17 00:37:39;;;;;;;14.20;7.82;;;;;;;1.71;66.19;99955.41;5028618;28;20528;-52
2020/12/17 00:40:07;;;;;;;15.45;7.57;;;;;;;1.71;66.44;99959.84;5027713;28;20037;-55
2020/12/17 00:42:33;;;;;;;14.15;7.70;;;;;;;1.68;66.75;99949.38;5042381;28;20131;-57
2020/12/17 00:44:58;;;;;;;12.40;7.13;;;;;;;1.69;67.08;99944.06;5032182;28;20076;-54
2020/12/17 00:47:30;;;;;;;14.63;8.07;;;;;;;1.71;67.11;99951.94;5032501;28;20149;-54
2020/12/17 00:49:56;;;;;;;13.65;7.28;;;;;;;1.72;66.83;99961.56;5031802;28;20045;-54
2020/12/17 00:52:23;;;;;;;11.10;7.07;;;;;;;1.75;67.12;99940.31;5032838;28;20069;-59
2020/12/17 00:54:49;;;;;;;12.40;7.20;;;;;;;1.75;67.12;99935.03;5032075;28;20037;-56
2020/12/17 00:57:14;;;;;;;11.15;6.80;;;;;;;1.79;66.96;99941.03;5032116;28;21035;-56
2020/12/17 00:59:40;;;;;;;11.27;6.78;;;;;;;1.78;67.13;99923.47;5031687;28;20657;-54
2020/12/17 01:02:05;;;;;;;11.77;6.60;;;;;;;1.78;67.03;99928.75;5032290;28;20049;-55
2020/12/17 01:04:31;;;;;;;10.57;6.18;;;;;;;1.74;67.10;99922.75;5031538;28;20484;-55
2020/12/17 01:06:56;;;;;;;9.90;5.57;;;;;;;1.76;67.00;99918.28;5031991;28;20400;-59
2020/12/17 01:09:22;;;;;;;8.82;5.70;;;;;;;1.70;67.05;99915.91;5031827;28;20512;-57
2020/12/17 01:11:48;;;;;;;8.00;5.18;;;;;;;1.76;67.03;99920.03;5032036;28;20060;-58
2020/12/17 01:14:13;;;;;;;8.73;5.55;;;;;;;1.72;67.06;99917.53;5031633;28;20332;-58
2020/12/17 01:16:39;;;;;;;8.45;5.05;;;;;;;1.76;66.83;99914.75;5031646;28;20037;-58
2020/12/17 01:19:05;;;;;;;8.07;5.15;;;;;;;1.56;67.08;99897.97;5024349;28;20075;-58
2020/12/17 01:21:30;;;;;;;9.02;5.20;;;;;;;1.55;67.17;99894.50;5031110;28;20417;-54
2020/12/17 01:23:56;;;;;;;8.65;5.20;;;;;;;1.70;67.02;99906.19;5031144;28;20041;-56
2020/12/17 01:26:22;;;;;;;9.35;5.60;;;;;;;1.69;66.96;99911.53;5030344;28;20029;-55
2020/12/17 01:28:47;;;;;;;8.57;5.22;;;;;;;1.22;67.11;99831.69;5031691;28;20394;-55
2020/12/17 01:31:13;;;;;;;7.35;4.57;;;;;;;1.24;67.32;99842.16;5030932;28;20041;-54
2020/12/17 01:33:41;;;;;;;9.27;5.82;;;;;;;1.70;67.49;99911.47;5031323;28;20040;-56
2020/12/17 01:36:11;;;;;;;11.38;5.70;;;;;;;1.71;67.54;99912.34;5030873;28;20033;-57
2020/12/17 01:38:40;;;;;;;7.78;4.75;;;;;;;1.70;67.47;99905.34;5031026;28;20037;-56
2020/12/17 01:41:11;;;;;;;7.55;4.78;;;;;;;1.73;67.30;99894.66;5030590;28;20467;-56
2020/12/17 01:43:42;;;;;;;7.65;4.75;;;;;;;1.72;67.25;99900.84;5031359;28;20036;-56
2020/12/17 01:46:09;;;;;;;8.73;5.55;;;;;;;1.65;67.10;99886.19;5031102;28;20389;-58
2020/12/17 01:48:35;;;;;;;8.02;5.10;;;;;;;1.67;67.14;99871.13;5031121;28;20103;-58
2020/12/17 01:51:02;;;;;;;7.75;5.07;;;;;;;1.72;67.36;99875.31;5031502;28;20397;-56
2020/12/17 01:53:28;;;;;;;9.00;4.80;;;;;;;1.70;66.51;99879.78;5030473;28;20045;-55
2020/12/17 01:55:56;;;;;;;7.80;4.68;;;;;;;1.70;67.23;99878.94;5030970;28;20174;-55
2020/12/17 01:58:26;;;;;;;6.63;4.70;;;;;;;1.64;67.21;99868.63;5031249;28;20516;-53
2020/12/17 02:00:54;;;;;;;10.02;5.13;;;;;;;1.62;67.29;99865.19;5031225;28;20051;-56
2020/12/17 02:03:20;;;;;;;10.68;5.32;;;;;;;1.81;66.96;99895.16;5030416;28;20056;-57
2020/12/17 02:05:47;;;;;;;9.55;5.10;;;;;;;1.80;67.41;99888.16;5030853;28;20048;-55
2020/12/17 02:08:15;;;;;;;8.95;5.50;;;;;;;1.85;66.65;99887.97;5031158;28;20033;-56
2020/12/17 02:10:41;;;;;;;10.75;5.45;;;;;;;1.83;66.67;99895.97;5030400;28;20543;-56
2020/12/17 02:13:06;;;;;;;10.15;5.15;;;;;;;1.79;66.92;99875.91;5030254;28;20109;-55
2020/12/17 02:15:32;;;;;;;8.48;5.40;;;;;;;1.92;66.74;99899.09;5030864;28;20478;-55
2020/12/17 02:17:57;;;;;;;9.07;5.18;;;;;;;1.96;66.51;99890.16;5030892;28;20036;-55
2020/12/17 02:20:23;;;;;;;7.30;4.65;;;;;;;1.98;66.67;99891.78;5030655;28;20026;-52
2020/12/17 02:22:48;;;;;;;5.85;4.07;;;;;;;2.00;66.52;99895.22;5029738;28;20060;-56
2020/12/17 02:25:14;;;;;;;8.10;4.80;;;;;;;1.97;66.26;99870.75;5029007;28;20967;-54
2020/12/17 02:27:42;;;;;;;7.22;4.40;;;;;;;2.00;66.79;99889.09;5030933;28;20063;-57
2020/12/17 02:30:09;;;;;;;6.57;4.43;;;;;;;2.05;66.13;99873.88;5029800;28;20069;-58
2020/12/17 02:32:36;;;;;;;6.32;4.30;;;;;;;2.04;66.21;99888.03;5027124;28;20085;-56
2020/12/17 02:35:06;;;;;;;6.97;4.40;;;;;;;2.05;66.11;99879.16;5030276;28;20405;-57
2020/12/17 02:37:32;;;;;;;7.35;4.32;;;;;;;1.99;66.23;99863.59;5030338;28;20120;-54
2020/12/17 02:39:58;;;;;;;7.90;4.75;;;;;;;2.04;65.96;99858.09;5058022;28;20029;-52
2020/12/17 02:42:23;;;;;;;7.88;4.43;;;;;;;2.11;66.06;99878.06;5030047;28;20029;-53
2020/12/17 02:44:50;;;;;;;7.25;4.28;;;;;;;2.13;65.67;99871.75;5029987;28;20608;-52
2020/12/17 02:47:16;;;;;;;6.60;3.80;;;;;;;2.16;65.94;99870.78;5030358;28;20041;-52
2020/12/17 02:49:41;;;;;;;8.00;4.40;;;;;;;2.17;66.02;99871.59;5029746;28;20042;-57
2020/12/17 02:52:06;;;;;;;7.82;4.50;;;;;;;2.17;65.78;99861.03;5029804;28;20509;-57
2020/12/17 02:54:32;;;;;;;7.18;4.35;;;;;;;2.14;65.64;99852.34;5029223;28;20033;-54
2020/12/17 02:56:57;;;;;;;6.07;4.20;;;;;;;2.21;66.16;99863.50;5030144;28;20033;-57
2020/12/17 02:59:23;;;;;;;9.63;4.70;;;;;;;2.23;66.11;99863.44;5030251;28;20053;-57
2020/12/17 03:01:48;;;;;;;6.80;4.70;;;;;;;2.24;65.93;99865.16;5029954;28;20125;-59
2020/12/17 03:04:14;;;;;;;6.82;4.97;;;;;;;2.20;66.03;99864.41;5029487;28;20146;-57
2020/12/17 03:06:40;;;;;;;8.68;4.80;;;;;;;2.26;65.99;99858.84;5029568;28;20022;-59
2020/12/17 03:09:06;;;;;;;6.80;4.35;;;;;;;2.27;65.95;99862.38;5029484;28;20069;-55
2020/12/17 03:11:32;;;;;;;6.97;4.25;;;;;;;2.23;65.82;99844.94;5029438;28;20036;-56
2020/12/17 03:13:58;;;;;;;7.93;4.50;;;;;;;2.28;66.22;99854.34;5029129;28;20041;-55
2020/12/17 03:16:24;;;;;;;6.75;4.53;;;;;;;2.32;66.04;99860.34;5029785;28;20037;-54
2020/12/17 03:18:49;;;;;;;9.23;5.28;;;;;;;2.28;66.32;99848.22;5029408;28;20037;-58
2020/12/17 03:21:15;;;;;;;12.55;5.38;;;;;;;2.32;66.31;99862.16;5037387;28;20082;-55
2020/12/17 03:23:41;;;;;;;6.13;4.70;;;;;;;2.33;66.35;99855.94;5029522;28;20073;-55
2020/12/17 03:26:07;;;;;;;7.93;4.88;;;;;;;2.35;66.16;99854.94;5028169;28;20556;-58
2020/12/17 03:28:33;;;;;;;8.30;4.65;;;;;;;2.40;65.90;99858.22;5029657;28;20120;-55
2020/12/17 03:30:59;;;;;;;7.32;4.75;;;;;;;2.41;66.24;99848.50;5029482;28;20056;-60
2020/12/17 03:33:24;;;;;;;7.72;4.70;;;;;;;1.63;65.90;99713.84;5029791;28;20493;-54
2020/12/17 03:35:50;;;;;;;9.02;4.90;;;;;;;2.42;66.01;99848.47;5029237;28;20112;-58
2020/12/17 03:38:16;;;;;;;9.18;5.35;;;;;;;2.39;66.23;99835.34;5043812;28;20191;-59
2020/12/17 03:40:42;;;;;;;11.88;4.85;;;;;;;2.44;66.00;99849.25;5028765;28;20696;-56
2020/12/17 03:43:08;;;;;;;6.93;4.53;;;;;;;2.07;66.25;99779.59;5028986;28;20120;-59
2020/12/17 03:45:33;;;;;;;10.63;4.97;;;;;;;2.43;66.18;99841.38;5029075;28;20083;-58
2020/12/17 03:47:59;;;;;;;7.30;4.78;;;;;;;2.44;66.64;99849.25;5029204;28;20210;-55
2020/12/17 03:50:24;;;;;;;8.95;5.07;;;;;;;2.26;66.34;99808.66;5029272;28;20033;-57
2020/12/17 03:52:50;;;;;;;11.43;5.05;;;;;;;2.49;66.53;99858.72;5029555;28;20037;-59
2020/12/17 03:55:15;;;;;;;9.00;5.00;;;;;;;2.43;66.19;99849.28;5028896;28;20029;-60
2020/12/17 03:57:41;;;;;;;10.32;5.47;;;;;;;2.49;65.81;99851.66;5028778;28;20049;-60
2020/12/17 04:00:06;;;;;;;14.95;6.00;;;;;;;2.49;66.28;99846.34;5028784;28;20038;-60
2020/12/17 04:02:32;;;;;;;9.15;5.55;;;;;;;2.50;66.08;99857.81;5028798;28;20025;-58
2020/12/17 04:04:57;;;;;;;7.97;4.82;;;;;;;2.37;66.15;99837.22;5028926;28;20038;-59
2020/12/17 04:07:23;;;;;;;9.65;5.40;;;;;;;2.50;66.66;99868.38;5028523;28;20108;-56
2020/12/17 04:09:48;;;;;;;11.43;5.10;;;;;;;2.44;66.39;99851.00;5028542;28;20041;-56
2020/12/17 04:12:14;;;;;;;8.30;5.00;;;;;;;2.51;66.38;99862.16;5029173;28;20103;-59
2020/12/17 04:14:41;;;;;;;8.40;5.07;;;;;;;2.52;66.39;99862.06;5028998;28;20037;-57
2020/12/17 04:17:06;;;;;;;10.27;4.95;;;;;;;2.53;66.55;99863.81;5029440;28;20501;-60
2020/12/17 04:19:32;;;;;;;9.50;5.40;;;;;;;2.05;66.78;99789.38;5032449;28;20065;-58
2020/12/17 04:21:57;;;;;;;9.73;5.35;;;;;;;2.52;66.57;99880.56;5041602;28;20029;-60
2020/12/17 04:24:23;;;;;;;8.52;5.25;;;;;;;2.51;66.42;99875.38;5032907;28;20405;-58
2020/12/17 04:26:52;;;;;;;8.43;5.38;;;;;;;2.53;67.15;99884.97;5032373;28;20084;-59
2020/12/17 04:29:18;;;;;;;6.97;4.78;;;;;;;2.60;66.62;99869.66;5031211;28;20160;-58
2020/12/17 04:31:44;;;;;;;11.02;5.38;;;;;;;2.62;66.28;99873.06;5032363;28;20083;-61
2020/12/17 04:34:10;;;;;;;8.60;5.15;;;;;;;2.60;66.66;99868.81;5032294;28;20111;-57
2020/12/17 04:36:35;;;;;;;10.02;5.28;;;;;;;2.64;66.83;99870.38;5031749;28;20040;-62
2020/12/17 04:39:02;;;;;;;10.70;5.20;;;;;;;2.67;66.83;99864.94;5025531;28;20053;-60
2020/12/17 04:41:31;;;;;;;10.13;5.18;;;;;;;1.89;66.78;99728.50;5032625;28;20048;-57
2020/12/17 04:43:56;;;;;;;10.35;5.72;;;;;;;2.74;66.84;99876.94;5032469;28;20045;-61
2020/12/17 04:46:24;;;;;;;11.07;5.18;;;;;;;2.79;66.63;99874.06;5032068;28;20025;-61
2020/12/17 04:48:51;;;;;;;7.30;4.40;;;;;;;2.77;66.46;99876.78;5031802;28;20033;-60
2020/12/17 04:51:18;;;;;;;10.05;4.95;;;;;;;2.77;66.77;99871.47;5032431;28;20034;-56
2020/12/17 04:53:49;;;;;;;8.93;5.60;;;;;;;2.83;67.02;99884.44;5052891;28;20036;-60
2020/12/17 04:56:19;;;;;;;12.30;5.38;;;;;;;2.43;66.63;99810.53;5031830;28;20040;-60
2020/12/17 04:58:49;;;;;;;8.40;4.60;;;;;;;2.83;66.76;99875.63;5031186;28;20970;-59
2020/12/17 05:01:17;;;;;;;8.27;5.05;;;;;;;2.90;66.31;99881.50;5032261;28;20334;-61
2020/12/17 05:03:48;;;;;;;12.32;5.75;;;;;;;2.93;66.75;99881.34;5014088;28;20043;-61
2020/12/17 05:06:23;;;;;;;13.02;5.63;;;;;;;2.88;66.54;99881.56;5028744;28;20038;-61
2020/12/17 05:08:50;;;;;;;8.18;5.22;;;;;;;2.92;66.83;99879.63;5031310;28;20041;-61
2020/12/17 05:11:16;;;;;;;8.30;5.20;;;;;;;2.46;66.54;99792.81;5031168;28;20119;-60
2020/12/17 05:13:41;;;;;;;10.52;5.10;;;;;;;3.02;65.99;99875.63;5031729;28;20117;-58
2020/12/17 05:16:07;;;;;;;11.55;5.00;;;;;;;2.98;67.10;99877.56;5031256;28;20095;-60
2020/12/17 05:18:32;;;;;;;9.52;5.32;;;;;;;2.81;66.76;99859.84;5030964;28;20033;-58
2020/12/17 05:20:59;;;;;;;9.07;5.10;;;;;;;2.97;66.92;99882.91;5046656;28;20033;-60
2020/12/17 05:23:25;;;;;;;9.23;5.38;;;;;;;2.95;67.32;99869.78;5031103;28;20120;-54
2020/12/17 05:25:52;;;;;;;12.25;5.90;;;;;;;3.07;66.61;99875.38;5031895;28;20056;-59
2020/12/17 05:28:18;;;;;;;8.93;5.47;;;;;;;2.95;67.01;99859.19;5030618;28;20045;-60
2020/12/17 05:30:44;;;;;;;13.15;5.85;;;;;;;2.99;66.87;99871.34;5024374;28;20124;-57
2020/12/17 05:33:09;;;;;;;10.32;5.43;;;;;;;3.01;66.93;99871.25;5030863;28;20129;-58
2020/12/17 05:35:37;;;;;;;10.95;5.18;;;;;;;3.12;66.56;99889.25;5031216;28;20489;-59
2020/12/17 05:38:05;;;;;;;8.73;4.90;;;;;;;3.13;66.99;99883.88;5030667;28;20037;-59
2020/12/17 05:40:36;;;;;;;9.77;5.18;;;;;;;3.17;67.08;99889.91;5030334;28;20025;-59
2020/12/17 05:43:02;;;;;;;10.30;5.28;;;;;;;3.17;66.63;99897.84;5031076;28;20558;-57
2020/12/17 05:45:29;;;;;;;10.75;5.10;;;;;;;3.19;66.52;99895.97;5030467;28;20120;-56
2020/12/17 05:48:17;;;;;;;6.95;5.00;;;;;;;3.25;67.18;99898.31;5030978;28;20033;-58
2020/12/17 05:50:50;;;;;;;9.52;4.95;;;;;;;3.24;67.18;99908.94;5030674;28;20551;-54
2020/12/17 05:53:16;;;;;;;11.02;5.00;;;;;;;3.16;67.13;99904.91;5030341;28;20070;-59
2020/12/17 05:55:43;;;;;;;8.90;4.90;;;;;;;2.92;67.49;99869.94;5023694;28;20110;-57
2020/12/17 05:58:10;;;;;;;11.18;5.25;;;;;;;3.21;67.53;99912.63;5030570;28;20099;-59
2020/12/17 06:00:36;;;;;;;9.98;4.97;;;;;;;2.84;67.13;99856.19;5030560;28;20451;-57
2020/12/17 06:03:01;;;;;;;8.85;4.75;;;;;;;3.16;67.34;99899.59;5029937;28;20049;-56
2020/12/17 06:05:29;;;;;;;10.63;4.93;;;;;;;3.23;67.67;99909.88;5029773;28;20033;-58
2020/12/17 06:07:59;;;;;;;10.45;5.00;;;;;;;3.16;68.03;99917.28;5031027;28;20034;-61
2020/12/17 06:10:29;;;;;;;8.95;5.38;;;;;;;3.18;68.27;99920.72;5030300;28;20021;-54
2020/12/17 06:13:00;;;;;;;8.50;4.93;;;;;;;3.22;68.15;99922.28;5029649;28;20390;-62
2020/12/17 06:15:27;;;;;;;8.90;4.97;;;;;;;3.23;68.17;99917.81;5030694;28;20029;-63
2020/12/17 06:17:54;;;;;;;11.00;4.88;;;;;;;3.29;68.49;99920.19;5030622;28;20136;-61
2020/12/17 06:20:24;;;;;;;9.15;5.50;;;;;;;3.27;68.49;99917.59;5030160;28;20137;-60
2020/12/17 06:22:51;;;;;;;6.55;4.75;;;;;;;3.29;68.34;99926.31;5029384;28;20044;-60
2020/12/17 06:25:18;;;;;;;8.88;5.22;;;;;;;3.23;68.49;99913.41;5030037;28;20069;-58
2020/12/17 06:27:46;;;;;;;6.30;4.85;;;;;;;3.28;68.90;99918.47;5030718;28;20441;-61
2020/12/17 06:30:15;;;;;;;9.63;5.30;;;;;;;3.25;68.92;99908.88;5013387;28;20033;-58
2020/12/17 06:32:41;;;;;;;8.80;5.22;;;;;;;3.25;69.06;99924.75;5029405;28;20123;-59
2020/12/17 06:35:20;;;;;;;10.25;4.95;;;;;;;3.12;69.16;99913.91;5029429;28;20116;-57
2020/12/17 06:37:46;;;;;;;8.27;5.05;;;;;;;3.25;69.04;99921.25;5030203;28;20068;-57
2020/12/17 06:40:11;;;;;;;8.13;5.22;;;;;;;3.26;68.81;99913.25;5021360;28;20504;-58
2020/12/17 06:42:38;;;;;;;8.80;4.75;;;;;;;3.31;69.04;99923.63;5028288;28;20049;-59
2020/12/17 06:45:23;;;;;;;6.50;4.63;;;;;;;3.34;69.04;99925.22;5029692;28;20125;-59
2020/12/17 06:47:48;;;;;;;8.65;4.78;;;;;;;3.35;68.89;99935.75;5030226;28;20044;-59
2020/12/17 06:50:28;;;;;;;10.73;4.95;;;;;;;3.17;69.14;99900.47;5029433;28;20937;-59
2020/12/17 06:53:10;;;;;;;7.35;4.40;;;;;;;3.47;68.76;99939.59;5029823;28;20124;-58
2020/12/17 06:55:50;;;;;;;9.38;4.63;;;;;;;3.49;69.16;99939.50;5029272;28;20041;-58
2020/12/17 06:58:23;;;;;;;7.25;4.47;;;;;;;3.51;69.00;99935.00;5029454;28;20061;-59
2020/12/17 07:00:53;;;;;;;5.35;4.15;;;;;;;3.08;68.52;99870.03;5028960;28;20504;-58
2020/12/17 07:03:46;;;;;;;11.48;4.20;;;;;;;3.48;68.79;99941.31;5029477;28;20408;-54
2020/12/17 07:06:25;;;;;;;6.85;3.90;;;;;;;3.49;68.78;99932.44;5028380;28;20034;-55
2020/12/17 07:08:54;;;;;;;5.63;3.75;;;;;;;3.44;68.88;99940.59;5029493;28;20045;-53
2020/12/17 07:11:41;;;;;;;9.05;4.03;;;;;;;3.53;68.85;99939.28;5029023;28;20105;-55
2020/12/17 07:14:17;;;;;;;6.80;3.97;;;;;;;3.50;68.74;99944.72;5028673;28;20497;-56
2020/12/17 07:16:52;;;;;;;5.85;4.18;;;;;;;3.54;68.79;99951.59;5028291;28;20041;-53
2020/12/17 07:19:27;;;;;;;7.22;3.88;;;;;;;3.13;69.11;99867.13;5029126;28;20045;-57
2020/12/17 07:22:14;;;;;;;;;;;;;;;3.67;68.35;99948.34;5029920;28;20037;-55
2020/12/17 07:24:45;;;;;;;5.55;3.70;;;;;;;3.63;68.36;99947.63;5017883;28;19917;-55
2020/12/17 07:27:12;;;;;;;5.68;3.40;;;;;;;3.63;68.37;99950.28;5028751;28;20570;-56
2020/12/17 07:29:51;;;;;;;6.88;4.07;;;;;;;3.62;68.76;99947.69;5017023;28;20037;-56
2020/12/17 07:32:36;;;;;;;7.95;4.20;;;;;;;3.64;69.05;99952.00;5028287;28;20501;-56
2020/12/17 07:35:07;;;;;;;5.43;3.73;;;;;;;3.66;68.81;99947.47;5028278;28;20123;-55
2020/12/17 07:37:47;;;;;;;7.18;3.67;;;;;;;3.70;68.74;99958.78;5036327;28;20057;-57
2020/12/17 07:40:17;;;;;;;10.13;4.07;;;;;;;3.75;68.91;99953.25;5040639;28;20037;-56
2020/12/17 07:42:54;;;;;;;8.05;3.97;;;;;;;3.36;69.19;99891.59;5028400;28;20030;-59
2020/12/17 07:45:45;;;;;;;5.60;3.80;;;;;;;3.78;69.39;99955.75;5028652;28;20033;-56
2020/12/17 07:48:40;;;;;;;7.25;4.05;;;;;;;3.74;69.63;99965.63;5028431;28;20107;-57
2020/12/17 07:51:15;;;;;;;6.70;3.50;;;;;;;3.70;69.31;99962.25;5029743;28;20034;-56
2020/12/17 07:53:45;;;;;;;5.32;3.33;;;;;;;3.69;69.34;99972.94;5032931;28;20116;-52
2020/12/17 07:56:11;;;;;;;5.57;3.88;;;;;;;3.68;69.40;99968.59;5031912;28;20037;-56
2020/12/17 07:58:37;;;;;;;6.80;3.90;;;;;;;3.33;69.70;99913.81;5012971;28;20134;-60
2020/12/17 08:01:04;;;;;;;6.50;3.90;;;;;;;3.54;69.77;99946.28;5029955;28;20046;-58
2020/12/17 08:03:39;;;;;;;8.07;4.38;;;;;;;3.60;69.67;99950.44;5033101;28;20048;-59
2020/12/17 08:06:06;;;;;;;6.28;4.13;;;;;;;3.69;69.74;99955.25;5037776;28;20037;-62
2020/12/17 08:08:32;;;;;;;6.95;3.80;;;;;;;3.71;69.68;99968.44;5031954;28;20060;-61
2020/12/17 08:10:58;;;;;;;10.07;3.60;;;;;;;3.28;69.56;99886.72;5013163;28;20049;-54
2020/12/17 08:13:25;;;;;;;10.15;3.80;;;;;;;3.68;69.59;99948.25;5032203;28;20868;-54
2020/12/17 08:15:55;;;;;;;7.72;3.53;;;;;;;3.67;69.26;99938.59;5016449;28;20485;-59
2020/12/17 08:18:23;;;;;;;7.30;4.00;;;;;;;3.79;69.37;99976.84;5033988;28;20128;-55
2020/12/17 08:20:48;;;;;;;8.00;3.50;;;;;;;3.72;69.59;99938.38;5030348;28;20046;-60
2020/12/17 08:23:18;;;;;;;6.78;3.25;;;;;;;3.90;69.63;99963.06;5032393;28;20029;-61
2020/12/17 08:25:44;;;;;;;8.15;3.55;;;;;;;3.90;69.63;99967.50;5031851;28;20056;-60
2020/12/17 08:28:10;;;;;;;13.68;3.10;;;;;;;3.65;69.11;99926.38;5033442;28;20041;-56
2020/12/17 08:30:35;;;;;;;9.60;3.75;;;;;;;4.06;68.69;99968.44;5032404;28;20144;-63
2020/12/17 08:33:01;;;;;;;4.90;3.03;;;;;;;3.92;68.76;99981.53;5027029;28;20608;-60
2020/12/17 08:35:27;;;;;;;6.28;3.38;;;;;;;3.82;69.21;99976.69;5035014;28;20504;-57
2020/12/17 08:37:56;;;;;;;6.70;3.25;;;;;;;3.88;69.00;99976.41;5032845;28;20037;-61
2020/12/17 08:40:27;;;;;;;6.35;3.17;;;;;;;3.86;68.91;99972.97;5028653;28;20055;-63
2020/12/17 08:43:01;;;;;;;3.78;2.63;;;;;;;3.91;69.64;99977.19;5032616;28;20544;-61
2020/12/17 08:45:27;;;;;;;7.07;3.00;;;;;;;3.93;69.47;99981.44;5031968;28;20124;-58
2020/12/17 08:48:00;;;;;;;2.92;2.63;;;;;;;3.95;69.67;99981.38;5031150;28;20029;-63
2020/12/17 08:50:26;;;;;;;5.90;3.17;;;;;;;4.04;68.90;99986.19;5030634;28;20059;-59
2020/12/17 08:52:55;;;;;;;6.00;2.60;;;;;;;4.06;69.24;99962.28;5032009;28;20052;-61
2020/12/17 08:55:23;;;;;;;5.78;2.63;;;;;;;4.29;68.72;99996.41;5036276;28;20033;-56
2020/12/17 08:57:49;;;;;;;3.15;2.40;;;;;;;4.39;68.49;99983.53;5025813;28;20204;-63
2020/12/17 09:00:19;;;;;;;5.03;2.78;;;;;;;4.40;68.30;99984.38;5033213;28;20124;-60
2020/12/17 09:02:44;;;;;;;3.58;2.80;;;;;;;4.50;68.38;99990.06;5029020;28;20079;-60
2020/12/17 09:05:12;;;;;;;5.53;2.90;;;;;;;4.51;68.04;99995.28;5027042;28;20131;-58
2020/12/17 09:07:40;;;;;;;5.90;2.70;;;;;;;4.51;68.36;99990.00;5032787;28;20054;-62
2020/12/17 09:10:10;;;;;;;5.90;3.70;;;;;;;4.56;68.18;100008.28;5025980;28;20048;-63
2020/12/17 09:12:36;;;;;;;6.55;3.40;;;;;;;4.54;67.92;100002.22;5025306;28;20389;-65
2020/12/17 09:15:10;;;;;;;5.35;3.05;;;;;;;4.55;67.84;99991.53;5013083;28;20060;-61
2020/12/17 09:17:37;;;;;;;7.53;2.67;;;;;;;4.50;67.78;99987.41;5029124;28;20119;-65
2020/12/17 09:20:16;;;;;;;4.80;2.92;;;;;;;4.71;67.16;100002.19;5030049;28;20044;-62
2020/12/17 09:22:43;;;;;;;5.18;2.72;;;;;;;4.70;67.60;100000.47;5035166;28;20033;-59
2020/12/17 09:25:09;;;;;;;8.57;2.80;;;;;;;4.76;67.80;99991.34;5033098;28;20445;-58
2020/12/17 09:27:37;;;;;;;4.45;2.47;;;;;;;4.80;67.35;99992.88;5030024;28;20037;-67
2020/12/17 09:30:08;;;;;;;4.18;2.42;;;;;;;4.90;66.67;99998.53;5035854;28;20034;-53
2020/12/17 09:32:39;;;;;;;4.32;2.50;;;;;;;4.99;66.25;99997.19;5041422;28;20044;-64
2020/12/17 09:35:10;;;;;;;5.63;2.55;;;;;;;4.97;66.14;99999.06;5035355;28;20032;-65
2020/12/17 09:37:36;;;;;;;4.88;2.15;;;;;;;4.92;66.70;100001.97;5031823;28;20037;-64
2020/12/17 09:40:04;;;;;;;5.90;2.05;;;;;;;4.90;66.28;99995.88;5031816;28;20041;-60
2020/12/17 09:42:30;;;;;;;8.38;2.00;;;;;;;4.95;65.87;99998.31;5029771;28;20044;-57
2020/12/17 09:44:55;;;;;;;4.03;2.20;;;;;;;4.86;66.27;99984.56;5024702;28;20553;-60
2020/12/17 09:47:33;;;;;;;2.45;2.20;;;;;;;4.97;66.86;99997.25;5030143;28;20588;-54
2020/12/17 09:50:10;;;;;;;4.57;2.10;;;;;;;4.99;65.95;99995.38;5030843;28;20099;-56
2020/12/17 09:52:36;;;;;;;4.70;2.33;;;;;;;5.01;65.95;99982.88;5023270;28;20049;-62
2020/12/17 09:55:01;;;;;;;4.38;1.88;;;;;;;5.05;65.69;99980.91;5032274;28;20420;-65
2020/12/17 09:57:44;;;;;;;4.03;2.05;;;;;;;5.11;65.53;99982.38;5026859;28;20069;-60
2020/12/17 10:00:15;;;;;;;6.28;2.58;;;;;;;5.08;65.36;99983.41;5028690;28;20579;-56
2020/12/17 10:02:43;;;;;;;2.92;2.03;;;;;;;5.06;64.89;99974.66;5027436;28;20073;-58
2020/12/17 10:05:13;;;;;;;5.13;2.22;;;;;;;5.14;65.11;99990.19;5022512;28;20045;-58
2020/12/17 10:07:46;;;;;;;7.32;2.00;;;;;;;5.19;64.75;99984.63;5030222;28;20121;-60
2020/12/17 10:10:12;;;;;;;4.50;1.80;;;;;;;5.15;65.12;99973.31;5021597;28;20095;-72
2020/12/17 10:12:37;;;;;;;4.50;2.10;;;;;;;5.14;65.28;99984.88;5029392;28;20645;-61
2020/12/17 10:15:02;;;;;;;2.95;1.90;;;;;;;4.86;64.58;99931.50;5029481;28;20030;-65
2020/12/17 10:17:28;;;;;;;3.92;2.00;;;;;;;5.16;64.51;99986.47;5030169;28;20033;-67
2020/12/17 10:19:54;;;;;;;2.65;1.63;;;;;;;5.14;64.41;99985.72;5025481;28;20048;-61
2020/12/17 10:22:19;;;;;;;5.63;2.00;;;;;;;5.10;64.87;99984.16;5029602;28;20926;-63
2020/12/17 10:24:45;;;;;;;3.05;1.98;;;;;;;5.10;64.62;99997.44;5048374;28;20060;-60
2020/12/17 10:27:10;;;;;;;3.15;1.73;;;;;;;5.10;64.58;99985.97;5033371;28;20033;-62
2020/12/17 10:29:36;;;;;;;3.10;2.00;;;;;;;5.12;64.26;99990.25;5015059;28;20834;-62
2020/12/17 10:32:01;;;;;;;3.00;1.75;;;;;;;5.10;64.70;100000.09;5029437;28;20052;-60
2020/12/17 10:34:27;;;;;;;6.88;2.20;;;;;;;5.08;64.52;100003.78;5029643;28;20034;-61
2020/12/17 10:36:55;;;;;;;3.25;1.70;;;;;;;5.04;64.70;100000.44;5029972;28;20063;-66
2020/12/17 10:39:20;;;;;;;3.20;1.80;;;;;;;5.03;64.61;100009.34;5029193;28;20921;-55
2020/12/17 10:41:46;;;;;;;4.72;2.03;;;;;;;5.01;64.60;100004.09;5029053;28;20171;-64
2020/12/17 10:44:12;;;;;;;4.10;1.90;;;;;;;5.00;65.10;99996.25;5029387;28;20037;-64
2020/12/17 10:46:39;;;;;;;2.88;2.00;;;;;;;4.98;64.23;100009.59;5027331;28;20044;-62
2020/12/17 10:49:05;;;;;;;3.22;1.58;;;;;;;4.91;64.77;100002.03;5027151;28;20037;-62
2020/12/17 10:51:31;;;;;;;6.45;1.83;;;;;;;4.94;64.72;100009.81;5030303;28;20044;-61
2020/12/17 10:53:57;;;;;;;3.55;1.70;;;;;;;4.92;64.91;100004.63;5023377;28;20038;-66
2020/12/17 10:56:23;;;;;;;3.28;2.00;;;;;;;4.80;64.73;99998.19;5029137;28;20036;-61
2020/12/17 10:58:50;;;;;;;2.42;1.73;;;;;;;4.82;65.30;100006.03;5027295;28;20131;-61
2020/12/17 11:01:20;;;;;;;2.13;1.63;;;;;;;4.81;65.19;100023.78;5027595;28;20040;-64
2020/12/17 11:03:46;;;;;;;3.30;1.55;;;;;;;4.07;64.98;99895.94;5025281;28;20045;-66
2020/12/17 11:06:16;;;;;;;2.83;1.63;;;;;;;4.79;65.23;100016.81;5029178;28;20501;-63
2020/12/17 11:08:41;;;;;;;1.95;1.75;;;;;;;4.76;64.66;100003.72;5028977;28;20033;-62
2020/12/17 11:11:07;;;;;;;5.43;1.85;;;;;;;4.79;65.11;100027.44;5025596;28;20764;-65
2020/12/17 11:13:32;;;;;;;3.80;1.90;;;;;;;4.72;65.22;100019.81;5011391;28;20418;-69
2020/12/17 11:15:58;;;;;;;4.40;1.67;;;;;;;4.65;65.14;100018.44;5028872;28;20034;-66
2020/12/17 11:18:23;;;;;;;4.03;2.03;;;;;;;4.72;65.05;100022.47;5028729;28;20508;-61
2020/12/17 11:20:49;;;;;;;4.40;1.85;;;;;;;4.67;65.50;100019.19;5028018;28;20029;-57
2020/12/17 11:23:14;;;;;;;3.30;1.67;;;;;;;4.69;65.57;100032.38;5023097;28;20048;-63
2020/12/17 11:25:40;;;;;;;3.17;1.60;;;;;;;4.66;65.56;100033.41;5028307;28;20033;-65
2020/12/17 11:28:06;;;;;;;4.90;1.95;;;;;;;4.68;65.31;100044.78;5027828;28;20052;-68
2020/12/17 11:30:34;;;;;;;5.50;1.60;;;;;;;4.66;65.93;100048.44;5024903;28;20037;-62
2020/12/17 11:32:59;;;;;;;2.97;1.98;;;;;;;4.50;65.71;100028.06;5029615;28;20041;-61
2020/12/17 11:35:25;;;;;;;4.22;2.05;;;;;;;4.50;65.92;100022.75;5026336;28;20045;-64
2020/12/17 11:37:51;;;;;;;3.70;2.03;;;;;;;4.60;66.14;100047.00;5025820;28;20041;-68
2020/12/17 11:40:23;;;;;;;2.20;1.48;;;;;;;4.62;66.77;100060.16;5027467;28;20038;-58
2020/12/17 11:42:50;;;;;;;3.25;1.70;;;;;;;4.57;66.51;100032.09;5028938;28;20077;-66